Time;durP1;ratioP1;P1;durP2;ratioP2;P2;SDS_P1;SDS_P2;PMS_P1;PMS_P2;Temp;Humidity;BMP_temperature;BMP_pressure;BME280_temperature;BME280_humidity;BME280_pressure;Samples;Min_cycle;Max_cycle;Signal;HPM_P1;HPM_P2
2022/10/29 00:01:41;;;;;;;22.75;10.13;;;;;;;22.79;100.00;101991.50;5005170;28;20038;-49
2022/10/29 00:04:07;;;;;;;36.57;10.40;;;;;;;22.92;100.00;101990.31;5007982;28;20099;-53
2022/10/29 00:06:32;;;;;;;29.52;10.85;;;;;;;22.97;100.00;101982.19;5008601;28;20285;-50
2022/10/29 00:08:58;;;;;;;31.98;11.50;;;;;;;22.85;100.00;101978.78;5000907;28;20054;-52
2022/10/29 00:11:23;;;;;;;25.20;11.48;;;;;;;22.56;100.00;101970.69;5008237;28;20031;-51
2022/10/29 00:13:54;;;;;;;22.45;10.57;;;;;;;22.40;100.00;101967.72;5006669;28;20061;-46
2022/10/29 00:16:22;;;;;;;29.03;11.13;;;;;;;22.24;100.00;101954.91;5002438;28;20042;-49
2022/10/29 00:18:48;;;;;;;20.77;11.80;;;;;;;22.24;100.00;101957.63;5008518;28;20031;-50
2022/10/29 00:21:18;;;;;;;32.08;10.85;;;;;;;22.55;100.00;101964.44;5007019;28;20041;-51
2022/10/29 00:23:44;;;;;;;28.97;11.17;;;;;;;22.11;100.00;101970.50;4999383;28;20043;-52
2022/10/29 00:26:09;;;;;;;25.92;12.40;;;;;;;21.97;100.00;101961.81;5014565;28;20030;-49
2022/10/29 00:28:35;;;;;;;27.17;11.85;;;;;;;21.74;100.00;101965.50;5002325;28;20103;-50
2022/10/29 00:31:11;;;;;;;23.50;10.73;;;;;;;21.86;100.00;101966.25;5006008;28;20035;-51
2022/10/29 00:33:37;;;;;;;28.60;11.30;;;;;;;21.84;100.00;101967.56;5007905;28;20025;-52
2022/10/29 00:36:12;;;;;;;19.25;11.13;;;;;;;21.52;100.00;101970.72;5008230;28;20076;-52
2022/10/29 00:38:38;;;;;;;25.40;10.20;;;;;;;21.82;100.00;101970.53;4999072;28;20030;-54
2022/10/29 00:41:05;;;;;;;20.83;9.68;;;;;;;21.89;100.00;101968.47;5002379;28;20118;-49
2022/10/29 00:43:35;;;;;;;24.87;10.37;;;;;;;22.09;100.00;101959.00;5003080;28;20042;-48
2022/10/29 00:46:05;;;;;;;25.13;10.77;;;;;;;22.11;100.00;101956.88;5013029;28;20038;-52
2022/10/29 00:48:36;;;;;;;23.43;10.53;;;;;;;22.00;100.00;101949.59;5003694;28;20035;-49
2022/10/29 00:51:06;;;;;;;28.47;11.33;;;;;;;21.85;100.00;101956.44;5001436;28;20265;-51
2022/10/29 00:53:35;;;;;;;15.37;10.30;;;;;;;21.76;100.00;101956.00;5003940;28;20060;-51
2022/10/29 00:56:01;;;;;;;17.87;10.93;;;;;;;21.76;100.00;101957.91;5005072;28;20027;-49
2022/10/29 00:58:28;;;;;;;23.60;10.07;;;;;;;21.74;100.00;101949.16;5036352;28;20034;-47
2022/10/29 01:00:53;;;;;;;;;;;;;;;21.29;100.00;101953.41;5012149;28;20028;-51
2022/10/29 01:03:19;;;;;;;42.73;11.43;;;;;;;21.21;100.00;101960.03;4999869;28;19994;-48
2022/10/29 01:05:46;;;;;;;16.83;9.90;;;;;;;21.41;100.00;101962.38;5002320;28;20042;-49
2022/10/29 01:08:14;;;;;;;21.00;11.43;;;;;;;21.44;100.00;101963.78;5000682;28;20050;-49
2022/10/29 01:10:56;;;;;;;26.57;12.80;;;;;;;21.29;100.00;101954.25;5000933;28;20030;-50
2022/10/29 01:13:59;;;;;;;25.57;12.87;;;;;;;21.32;100.00;101948.31;5003992;28;20284;-53
2022/10/29 01:17:05;;;;;;;28.83;12.20;;;;;;;21.34;100.00;101946.19;5003074;28;20268;-50
2022/10/29 01:19:52;;;;;;;23.00;11.77;;;;;;;21.15;100.00;101953.69;5002206;28;20291;-49
2022/10/29 01:22:23;;;;;;;25.63;12.97;;;;;;;21.14;100.00;101948.47;5001642;28;20336;-48
2022/10/29 01:25:08;;;;;;;29.13;13.30;;;;;;;21.35;100.00;101941.59;5016357;28;20285;-51
2022/10/29 01:28:07;;;;;;;25.03;13.07;;;;;;;21.37;100.00;101944.03;5001031;28;20279;-48
2022/10/29 01:30:50;;;;;;;38.60;14.50;;;;;;;21.24;100.00;101934.28;4970240;28;20280;-48
2022/10/29 01:33:39;;;;;;;38.23;15.33;;;;;;;21.08;100.00;101935.84;4998667;28;20275;-49
2022/10/29 01:36:24;;;;;;;41.43;17.50;;;;;;;21.05;100.00;101934.44;5007222;28;20287;-47
2022/10/29 01:39:18;;;;;;;42.13;17.63;;;;;;;21.23;100.00;101924.47;5006020;28;20273;-50
2022/10/29 01:42:11;;;;;;;39.53;18.07;;;;;;;21.01;100.00;101922.38;5001284;28;20261;-53
2022/10/29 01:45:06;;;;;;;38.43;16.80;;;;;;;21.18;100.00;101925.16;4994034;28;20284;-48
2022/10/29 01:47:41;;;;;;;31.37;16.70;;;;;;;21.17;100.00;101910.75;5014263;28;20314;-51
2022/10/29 01:50:10;;;;;;;33.97;15.90;;;;;;;21.18;100.00;101920.56;4998438;28;20271;-51
2022/10/29 01:52:37;;;;;;;39.87;15.00;;;;;;;21.09;100.00;101910.31;5012524;28;20280;-52
2022/10/29 01:55:04;;;;;;;27.97;15.70;;;;;;;21.31;100.00;101897.72;5008802;28;20264;-49
2022/10/29 01:57:34;;;;;;;34.35;15.35;;;;;;;21.14;100.00;101908.53;5004850;28;20272;-51
2022/10/29 02:00:05;;;;;;;37.33;14.47;;;;;;;21.28;100.00;101902.78;5011107;28;20035;-51
2022/10/29 02:02:57;;;;;;;44.00;15.60;;;;;;;21.15;100.00;101899.31;5007467;28;20297;-50
2022/10/29 02:05:25;;;;;;;32.87;16.00;;;;;;;21.06;100.00;101893.41;5009312;28;20303;-49
2022/10/29 02:07:57;;;;;;;42.13;16.70;;;;;;;21.08;100.00;101892.34;5014255;28;20287;-52
2022/10/29 02:10:34;;;;;;;31.23;15.93;;;;;;;20.92;100.00;101886.56;5003662;28;20281;-53
2022/10/29 02:13:00;;;;;;;30.53;14.57;;;;;;;21.05;100.00;101888.19;5003596;28;20273;-51
2022/10/29 02:15:34;;;;;;;41.30;14.32;;;;;;;21.02;100.00;101889.53;5006389;28;20294;-52
2022/10/29 02:18:01;;;;;;;37.17;14.47;;;;;;;21.01;100.00;101887.03;5012767;28;20133;-53
2022/10/29 02:20:26;;;;;;;32.23;13.60;;;;;;;21.15;100.00;101890.31;5010247;28;20264;-54
2022/10/29 02:22:52;;;;;;;24.13;12.97;;;;;;;21.02;100.00;101894.97;5005852;28;20295;-50
2022/10/29 02:25:17;;;;;;;27.50;13.03;;;;;;;21.13;100.00;101901.44;5006208;28;20066;-53
2022/10/29 02:27:43;;;;;;;24.30;12.80;;;;;;;21.08;100.00;101903.22;5014055;28;20026;-50
2022/10/29 02:30:09;;;;;;;32.90;13.93;;;;;;;20.87;100.00;101897.34;5014715;28;20050;-50
2022/10/29 02:32:35;;;;;;;50.63;14.57;;;;;;;20.96;100.00;101893.19;5010303;28;20094;-53
2022/10/29 02:35:00;;;;;;;32.42;14.50;;;;;;;20.97;100.00;101896.75;5009474;28;20046;-51
2022/10/29 02:37:27;;;;;;;25.65;14.07;;;;;;;20.88;100.00;101894.41;5004888;28;20034;-52
2022/10/29 02:39:53;;;;;;;34.05;14.15;;;;;;;21.09;100.00;101894.00;5000663;28;20041;-51
2022/10/29 02:42:18;;;;;;;40.15;16.45;;;;;;;20.86;100.00;101879.38;5011310;28;20035;-51
2022/10/29 02:44:44;;;;;;;39.33;15.48;;;;;;;20.57;100.00;101874.66;5002642;28;20042;-52
2022/10/29 02:47:09;;;;;;;35.58;16.02;;;;;;;20.55;100.00;101856.97;5016940;28;20061;-51
2022/10/29 02:49:34;;;;;;;33.60;15.20;;;;;;;20.96;100.00;101857.84;5003274;28;20114;-52
2022/10/29 02:52:00;;;;;;;37.83;15.07;;;;;;;20.98;100.00;101861.13;5004242;28;20062;-48
2022/10/29 02:54:26;;;;;;;31.10;14.35;;;;;;;20.98;100.00;101850.25;5013617;28;20050;-49
2022/10/29 02:56:51;;;;;;;32.50;14.88;;;;;;;20.96;100.00;101852.41;5004859;28;20062;-50
2022/10/29 02:59:16;;;;;;;32.73;16.17;;;;;;;21.26;100.00;101855.97;5019921;28;20037;-50
2022/10/29 03:01:42;;;;;;;40.22;17.05;;;;;;;20.78;100.00;101846.06;5006978;28;20046;-53
2022/10/29 03:04:10;;;;;;;45.58;17.33;;;;;;;20.65;100.00;101851.72;5003148;28;20050;-49
2022/10/29 03:06:36;;;;;;;37.50;18.17;;;;;;;20.23;100.00;101849.16;5012619;28;20041;-46
2022/10/29 03:09:01;;;;;;;40.45;16.25;;;;;;;20.34;100.00;101851.88;5008079;28;20273;-50
2022/10/29 03:11:27;;;;;;;31.98;15.85;;;;;;;20.34;100.00;101845.63;5013313;28;20038;-48
2022/10/29 03:13:53;;;;;;;33.50;16.15;;;;;;;20.53;100.00;101854.47;5006444;28;20444;-51
2022/10/29 03:16:18;;;;;;;31.25;14.55;;;;;;;20.96;100.00;101854.31;5006740;28;20023;-47
2022/10/29 03:18:44;;;;;;;37.22;17.63;;;;;;;21.03;100.00;101853.09;5016012;28;20061;-51
2022/10/29 03:21:09;;;;;;;36.95;17.08;;;;;;;20.83;100.00;101844.53;5008761;28;20034;-47
2022/10/29 03:23:35;;;;;;;35.33;16.33;;;;;;;20.81;100.00;101852.09;5003122;28;20034;-49
2022/10/29 03:26:00;;;;;;;28.65;15.13;;;;;;;20.81;100.00;101842.03;5012844;28;20038;-49
2022/10/29 03:28:29;;;;;;;34.20;17.13;;;;;;;20.61;100.00;101840.50;5008864;28;20043;-52
2022/10/29 03:30:54;;;;;;;32.93;14.90;;;;;;;20.69;100.00;101839.31;5004500;28;20031;-50
2022/10/29 03:33:20;;;;;;;37.22;16.23;;;;;;;20.63;100.00;101837.56;5011988;28;20275;-49
2022/10/29 03:35:45;;;;;;;36.05;16.38;;;;;;;20.63;100.00;101837.56;5011500;28;20034;-50
2022/10/29 03:38:11;;;;;;;38.65;18.25;;;;;;;20.81;100.00;101842.03;5005137;28;20038;-52
2022/10/29 03:40:36;;;;;;;38.63;16.97;;;;;;;20.66;100.00;101847.16;5020109;28;20046;-53
2022/10/29 03:43:02;;;;;;;33.43;16.43;;;;;;;20.78;100.00;101856.09;5005802;28;20279;-54
2022/10/29 03:45:27;;;;;;;35.85;15.70;;;;;;;20.85;100.00;101850.56;5011986;28;20094;-51
2022/10/29 03:47:53;;;;;;;26.48;14.63;;;;;;;20.82;100.00;101861.91;5005310;28;20058;-55
2022/10/29 03:50:18;;;;;;;37.37;16.83;;;;;;;20.91;100.00;101866.72;5007270;28;20035;-52
2022/10/29 03:52:43;;;;;;;41.30;19.10;;;;;;;20.75;100.00;101857.38;5011847;28;20062;-52
2022/10/29 03:55:09;;;;;;;56.03;20.00;;;;;;;20.77;100.00;101866.16;5007321;28;20027;-49
2022/10/29 03:57:35;;;;;;;42.92;18.90;;;;;;;20.86;100.00;101853.00;5005765;28;20054;-51
2022/10/29 04:00:03;;;;;;;37.55;18.10;;;;;;;20.81;100.00;101857.53;4999167;28;20031;-50
2022/10/29 04:02:38;;;;;;;35.70;17.07;;;;;;;20.72;100.00;101857.84;5007852;28;20064;-53
2022/10/29 04:05:03;;;;;;;32.80;17.42;;;;;;;20.70;100.00;101845.59;5000308;28;20351;-53
2022/10/29 04:07:29;;;;;;;27.63;16.25;;;;;;;20.93;100.00;101842.00;5014694;28;20115;-49
2022/10/29 04:09:54;;;;;;;31.08;16.30;;;;;;;20.98;100.00;101833.94;5003143;28;20038;-52
2022/10/29 04:12:20;;;;;;;31.73;15.65;;;;;;;21.08;100.00;101841.47;4999511;28;20062;-53
2022/10/29 04:14:47;;;;;;;29.70;14.40;;;;;;;20.86;100.00;101833.97;4996712;28;20080;-53
2022/10/29 04:17:13;;;;;;;31.67;14.93;;;;;;;20.77;100.00;101827.25;4999782;28;20026;-47
2022/10/29 04:19:39;;;;;;;31.38;15.20;;;;;;;20.78;100.00;101824.31;5009844;28;20284;-48
2022/10/29 04:22:05;;;;;;;28.33;14.07;;;;;;;20.67;100.00;101822.44;5004062;28;20057;-49
2022/10/29 04:24:31;;;;;;;27.38;14.82;;;;;;;20.73;100.00;101816.03;5005707;28;20316;-48
2022/10/29 04:26:56;;;;;;;30.67;15.98;;;;;;;20.64;100.00;101814.75;5003585;28;20054;-53
2022/10/29 04:29:21;;;;;;;28.67;15.25;;;;;;;20.77;100.00;101809.06;5003456;28;20031;-49
2022/10/29 04:31:47;;;;;;;33.38;15.18;;;;;;;20.77;100.00;101802.78;5016553;28;20034;-49
2022/10/29 04:34:13;;;;;;;27.23;13.70;;;;;;;20.73;100.00;101804.34;5000559;28;20106;-52
2022/10/29 04:36:39;;;;;;;32.65;15.45;;;;;;;20.82;100.00;101818.41;5003346;28;20031;-46
2022/10/29 04:39:04;;;;;;;35.63;16.00;;;;;;;20.81;100.00;101803.97;5000612;28;20035;-50
2022/10/29 04:41:31;;;;;;;30.77;16.17;;;;;;;21.10;100.00;101814.06;5007943;28;20034;-50
2022/10/29 04:43:57;;;;;;;31.42;17.02;;;;;;;20.98;100.00;101805.94;5001840;28;20055;-50
2022/10/29 04:46:22;;;;;;;34.33;16.65;;;;;;;20.95;100.00;101803.72;5011333;28;20049;-50
2022/10/29 04:48:48;;;;;;;38.17;16.88;;;;;;;20.84;100.00;101802.69;5012072;28;20042;-51
2022/10/29 04:51:23;;;;;;;38.38;18.60;;;;;;;20.71;100.00;101811.91;5001154;28;20087;-51
2022/10/29 04:53:48;;;;;;;41.67;17.93;;;;;;;20.70;100.00;101810.25;5007802;28;20035;-49
2022/10/29 04:56:15;;;;;;;44.92;18.35;;;;;;;20.67;100.00;101803.41;5003680;28;20284;-50
2022/10/29 04:58:40;;;;;;;38.05;16.67;;;;;;;20.80;100.00;101802.34;5010497;28;20023;-50
2022/10/29 05:01:05;;;;;;;33.97;16.00;;;;;;;21.06;100.00;101805.56;5016589;28;20085;-51
2022/10/29 05:03:31;;;;;;;34.80;16.23;;;;;;;21.07;100.00;101799.03;5003518;28;20061;-53
2022/10/29 05:05:57;;;;;;;35.40;16.05;;;;;;;21.12;100.00;101791.00;5008383;28;20039;-50
2022/10/29 05:08:23;;;;;;;32.53;16.35;;;;;;;21.12;100.00;101779.28;4995557;28;20039;-50
2022/10/29 05:10:49;;;;;;;31.38;16.08;;;;;;;21.29;100.00;101787.47;5003766;28;20030;-50
2022/10/29 05:13:14;;;;;;;31.85;16.15;;;;;;;21.20;100.00;101787.03;5009882;28;20102;-50
2022/10/29 05:15:40;;;;;;;35.78;17.15;;;;;;;20.88;100.00;101792.97;5006117;28;20038;-48
2022/10/29 05:18:07;;;;;;;34.03;16.02;;;;;;;21.06;100.00;101798.22;5002596;28;20039;-51
2022/10/29 05:20:33;;;;;;;33.63;15.83;;;;;;;21.20;100.00;101782.44;5008069;28;20043;-49
2022/10/29 05:23:00;;;;;;;;;;;;;;;21.33;100.00;101792.19;5012667;28;20287;-49
2022/10/29 05:25:26;;;;;;;36.10;15.40;;;;;;;21.27;100.00;101785.00;5009351;28;19940;-49
2022/10/29 05:28:10;;;;;;;28.05;16.17;;;;;;;21.01;100.00;101786.44;5014211;28;20285;-48
2022/10/29 05:30:36;;;;;;;40.17;18.00;;;;;;;21.20;100.00;101778.88;4993867;28;20047;-51
2022/10/29 05:33:06;;;;;;;35.75;18.00;;;;;;;21.28;100.00;101786.66;5002078;28;20035;-48
2022/10/29 05:35:32;;;;;;;34.87;19.10;;;;;;;21.19;100.00;101783.50;5013924;28;20049;-51
2022/10/29 05:37:59;;;;;;;34.28;16.30;;;;;;;21.22;100.00;101787.66;5001392;28;20275;-50
2022/10/29 05:40:24;;;;;;;34.40;15.80;;;;;;;21.08;100.00;101789.81;5010556;28;20038;-52
2022/10/29 05:42:51;;;;;;;45.63;20.02;;;;;;;21.06;100.00;101791.94;5004545;28;20026;-49
2022/10/29 05:45:17;;;;;;;34.88;17.55;;;;;;;20.99;100.00;101788.56;5003552;28;20041;-51
2022/10/29 05:47:42;;;;;;;38.78;19.58;;;;;;;20.88;100.00;101772.06;5007676;28;20047;-52
2022/10/29 05:50:09;;;;;;;34.70;16.80;;;;;;;20.87;100.00;101766.84;5005839;28;20102;-53
2022/10/29 05:52:34;;;;;;;;;;;;;;;21.04;100.00;101765.03;5012967;28;20311;-49
2022/10/29 05:55:01;;;;;;;36.03;16.97;;;;;;;21.14;100.00;101768.97;5007681;28;19973;-52
2022/10/29 05:57:27;;;;;;;39.65;18.17;;;;;;;20.85;100.00;101764.38;5007084;28;20269;-53
2022/10/29 05:59:53;;;;;;;49.97;19.40;;;;;;;20.94;100.00;101767.53;4998075;28;20034;-51
2022/10/29 06:02:18;;;;;;;53.23;24.77;;;;;;;20.97;100.00;101764.31;4994710;28;20038;-51
2022/10/29 06:04:43;;;;;;;38.53;18.60;;;;;;;20.99;100.00;101759.50;5003367;28;20284;-52
2022/10/29 06:07:09;;;;;;;42.58;19.05;;;;;;;20.83;100.00;101754.81;5009363;28;20113;-50
2022/10/29 06:09:35;;;;;;;40.05;18.23;;;;;;;21.04;100.00;101756.88;5009165;28;20043;-51
2022/10/29 06:12:00;;;;;;;45.47;19.30;;;;;;;21.09;100.00;101760.75;5002219;28;20038;-53
2022/10/29 06:14:26;;;;;;;39.88;18.20;;;;;;;20.97;100.00;101761.59;5012941;28;20028;-50
2022/10/29 06:16:51;;;;;;;35.95;18.65;;;;;;;20.90;100.00;101755.50;5000772;28;20090;-50
2022/10/29 06:19:17;;;;;;;41.08;22.85;;;;;;;21.09;100.00;101763.47;5004497;28;20038;-52
2022/10/29 06:21:42;;;;;;;35.33;18.40;;;;;;;21.06;100.00;101762.88;5010301;28;20060;-53
2022/10/29 06:24:09;;;;;;;54.42;25.67;;;;;;;21.08;100.00;101770.78;5001383;28;20121;-51
2022/10/29 06:26:36;;;;;;;48.63;20.20;;;;;;;21.00;100.00;101772.03;5006449;28;20035;-48
2022/10/29 06:29:02;;;;;;;49.30;22.83;;;;;;;20.98;100.00;101771.41;5003857;28;20045;-49
2022/10/29 06:31:28;;;;;;;42.70;19.02;;;;;;;21.07;100.00;101771.84;5013562;28;20024;-50
2022/10/29 06:33:54;;;;;;;53.33;20.23;;;;;;;21.06;100.00;101771.03;5008307;28;20035;-48
2022/10/29 06:36:20;;;;;;;37.42;19.63;;;;;;;21.11;100.00;101766.75;5006279;28;20277;-52
2022/10/29 06:38:45;;;;;;;44.03;20.55;;;;;;;21.28;100.00;101775.78;5004219;28;20041;-52
2022/10/29 06:41:10;;;;;;;37.20;20.70;;;;;;;21.29;100.00;101774.72;5009178;28;20058;-50
2022/10/29 06:43:36;;;;;;;41.63;19.80;;;;;;;21.40;100.00;101769.44;5014452;28;20062;-53
2022/10/29 06:46:02;;;;;;;42.67;17.88;;;;;;;21.42;100.00;101773.56;5003606;28;20050;-49
2022/10/29 06:48:27;;;;;;;42.38;19.42;;;;;;;21.45;100.00;101766.78;5009797;28;20111;-47
2022/10/29 06:50:53;;;;;;;38.80;19.10;;;;;;;21.75;100.00;101769.22;5012085;28;20039;-50
2022/10/29 06:53:19;;;;;;;44.50;18.50;;;;;;;21.66;100.00;101756.28;5007003;28;20030;-48
2022/10/29 06:55:44;;;;;;;;;;;;;;;21.65;100.00;101751.91;5011351;28;20033;-50
2022/10/29 06:58:16;;;;;;;31.77;16.07;;;;;;;21.70;100.00;101743.84;5001274;28;19936;-50
2022/10/29 07:00:42;;;;;;;41.43;17.43;;;;;;;21.72;100.00;101752.56;5008433;28;20061;-49
2022/10/29 07:03:11;;;;;;;41.13;17.63;;;;;;;21.32;100.00;101752.44;5001742;28;20031;-51
2022/10/29 07:05:36;;;;;;;35.10;16.37;;;;;;;21.44;100.00;101760.53;5003955;28;20038;-52
2022/10/29 07:08:02;;;;;;;37.37;17.23;;;;;;;20.86;100.00;101766.03;5009505;28;20610;-51
2022/10/29 07:10:30;;;;;;;31.75;16.45;;;;;;;21.23;100.00;101770.25;5007319;28;20102;-48
2022/10/29 07:12:56;;;;;;;46.10;19.57;;;;;;;20.96;100.00;101765.38;5010840;28;20037;-49
2022/10/29 07:15:22;;;;;;;46.53;19.40;;;;;;;20.67;100.00;101768.06;4999524;28;20049;-50
2022/10/29 07:17:59;;;;;;;40.47;17.15;;;;;;;20.80;100.00;101768.91;5006733;28;20040;-49
2022/10/29 07:20:26;;;;;;;;;;;;;;;20.85;100.00;101772.53;5002335;28;20030;-49
2022/10/29 07:22:52;;;;;;;43.42;18.73;;;;;;;21.24;100.00;101766.47;5008473;28;19935;-49
2022/10/29 07:25:17;;;;;;;38.10;17.00;;;;;;;21.35;100.00;101762.84;4995226;28;20093;-49
2022/10/29 07:27:43;;;;;;;40.25;18.70;;;;;;;21.49;100.00;101770.69;5012735;28;20038;-48
2022/10/29 07:30:10;;;;;;;42.55;18.45;;;;;;;22.16;100.00;101776.34;5004137;28;20039;-51
2022/10/29 07:32:35;;;;;;;37.45;18.38;;;;;;;21.55;100.00;101769.69;4999601;28;20030;-50
2022/10/29 07:35:01;;;;;;;52.97;19.45;;;;;;;21.76;100.00;101762.69;5001223;28;20039;-51
2022/10/29 07:37:26;;;;;;;41.90;19.05;;;;;;;21.85;100.00;101765.03;5012065;28;20054;-50
2022/10/29 07:39:52;;;;;;;32.90;17.45;;;;;;;21.74;100.00;101755.88;5003379;28;20042;-53
2022/10/29 07:42:17;;;;;;;43.03;18.75;;;;;;;22.27;100.00;101766.41;5019462;28;20052;-50
2022/10/29 07:44:43;;;;;;;39.58;17.83;;;;;;;21.73;100.00;101770.56;5008582;28;20089;-53
2022/10/29 07:47:08;;;;;;;36.60;18.20;;;;;;;21.76;100.00;101764.63;5010635;28;20035;-51
2022/10/29 07:49:34;;;;;;;38.72;17.52;;;;;;;22.03;100.00;101772.94;5006780;28;20068;-51
2022/10/29 07:51:59;;;;;;;32.38;18.02;;;;;;;21.95;100.00;101765.16;5002618;28;20051;-50
2022/10/29 07:54:24;;;;;;;39.50;17.20;;;;;;;21.82;100.00;101763.59;5011771;28;20094;-52
2022/10/29 07:56:52;;;;;;;46.08;17.85;;;;;;;22.02;100.00;101754.09;5006777;28;20026;-53
2022/10/29 07:59:18;;;;;;;37.57;17.87;;;;;;;22.08;100.00;101755.81;5003970;28;20042;-52
2022/10/29 08:01:44;;;;;;;32.97;17.25;;;;;;;21.95;100.00;101757.00;5010379;28;20072;-51
2022/10/29 08:04:10;;;;;;;39.47;17.25;;;;;;;22.40;100.00;101759.78;5007011;28;20029;-53
2022/10/29 08:06:36;;;;;;;30.40;15.05;;;;;;;22.80;100.00;101750.47;5002476;28;20038;-52
2022/10/29 08:09:02;;;;;;;37.22;16.48;;;;;;;23.19;100.00;101750.31;5011643;28;20098;-53
2022/10/29 08:11:30;;;;;;;35.95;16.65;;;;;;;23.54;100.00;101753.63;5005362;28;20039;-54
2022/10/29 08:13:55;;;;;;;45.33;23.40;;;;;;;24.02;100.00;101744.69;4997373;28;20023;-51
2022/10/29 08:16:21;;;;;;;41.50;16.55;;;;;;;24.62;100.00;101737.03;5014556;28;20035;-51
2022/10/29 08:18:46;;;;;;;47.45;23.15;;;;;;;24.81;100.00;101739.28;5002269;28;20038;-50
2022/10/29 08:21:12;;;;;;;38.53;13.45;;;;;;;24.71;100.00;101740.06;5002063;28;20033;-52
2022/10/29 08:23:37;;;;;;;30.92;14.05;;;;;;;24.19;100.00;101737.13;5008020;28;20041;-54
2022/10/29 08:26:03;;;;;;;28.83;13.05;;;;;;;24.81;100.00;101739.28;5002816;28;20079;-51
2022/10/29 08:28:28;;;;;;;29.42;12.57;;;;;;;24.45;100.00;101737.25;5016692;28;20072;-52
2022/10/29 08:30:54;;;;;;;33.20;13.68;;;;;;;24.41;100.00;101736.13;5002727;28;20070;-52
2022/10/29 08:33:19;;;;;;;28.98;13.27;;;;;;;23.84;100.00;101730.34;5002385;28;20038;-50
2022/10/29 08:35:45;;;;;;;27.63;13.57;;;;;;;23.73;100.00;101725.91;5008825;28;20030;-50
2022/10/29 08:38:11;;;;;;;32.28;13.27;;;;;;;23.92;100.00;101729.84;5005412;28;20058;-52
2022/10/29 08:41:07;;;;;;;29.15;14.13;;;;;;;24.21;100.00;101736.84;5001593;28;20037;-52
2022/10/29 08:44:04;;;;;;;26.63;13.30;;;;;;;24.48;100.00;101733.13;5012327;28;20054;-53
2022/10/29 08:46:49;;;;;;;32.70;13.63;;;;;;;23.91;100.00;101738.31;5002612;28;20045;-54
2022/10/29 08:49:18;;;;;;;26.43;13.77;;;;;;;25.80;100.00;101748.34;5018848;28;20042;-52
2022/10/29 08:51:51;;;;;;;31.50;13.60;;;;;;;26.75;100.00;101751.28;5001895;28;20062;-54
2022/10/29 08:54:17;;;;;;;22.03;12.43;;;;;;;26.61;100.00;101742.06;5001915;28;20030;-54
2022/10/29 08:56:50;;;;;;;23.48;12.70;;;;;;;26.63;100.00;101742.59;5005307;28;20081;-51
2022/10/29 08:59:19;;;;;;;27.60;13.63;;;;;;;26.10;100.00;101741.16;5002043;28;20039;-55
2022/10/29 09:01:45;;;;;;;23.27;12.27;;;;;;;25.69;100.00;101749.47;5005899;28;20053;-49
2022/10/29 09:04:24;;;;;;;;;;;;;;;25.23;100.00;101745.63;5013822;28;20097;-51
2022/10/29 09:07:18;;;;;;;29.40;14.97;;;;;;;24.75;100.00;101738.44;4999515;28;19914;-54
2022/10/29 09:10:06;;;;;;;29.50;14.93;;;;;;;24.79;100.00;101727.78;5004481;28;20061;-54
2022/10/29 09:12:47;;;;;;;32.17;14.80;;;;;;;24.82;100.00;101729.16;5003172;28;20046;-50
2022/10/29 09:15:34;;;;;;;32.90;14.53;;;;;;;25.34;100.00;101730.84;5005473;28;20039;-51
2022/10/29 09:18:18;;;;;;;;;;;;;;;25.63;100.00;101730.31;5008820;28;20042;-50
2022/10/29 09:21:01;;;;;;;29.07;13.77;;;;;;;25.55;100.00;101719.09;5001598;28;19917;-52
2022/10/29 09:23:34;;;;;;;31.97;14.80;;;;;;;25.75;100.00;101726.44;4998979;28;20097;-52
2022/10/29 09:26:02;;;;;;;32.40;14.87;;;;;;;25.20;100.00;101718.81;5002233;28;20064;-50
2022/10/29 09:28:46;;;;;;;31.33;14.57;;;;;;;25.49;100.00;101710.06;5013080;28;20030;-49
2022/10/29 09:31:15;;;;;;;32.47;13.77;;;;;;;25.41;100.00;101713.31;5003552;28;20027;-50
2022/10/29 09:33:44;;;;;;;35.23;15.63;;;;;;;25.66;100.00;101711.69;5000243;28;20035;-50
2022/10/29 09:36:16;;;;;;;31.90;17.60;;;;;;;25.76;100.00;101714.38;5008767;28;20030;-54
2022/10/29 09:38:52;;;;;;;28.50;15.03;;;;;;;25.37;100.00;101712.22;5004663;28;20590;-53
2022/10/29 09:41:20;;;;;;;33.22;17.15;;;;;;;25.55;100.00;101717.16;5014261;28;20034;-51
2022/10/29 09:44:00;;;;;;;25.77;14.67;;;;;;;25.13;100.00;101704.56;5013333;28;20035;-51
2022/10/29 09:46:48;;;;;;;30.20;15.50;;;;;;;25.15;100.00;101700.47;5002671;28;20861;-54
2022/10/29 09:49:43;;;;;;;36.92;17.95;;;;;;;25.55;100.00;101703.47;5006580;28;20045;-52
2022/10/29 09:52:15;;;;;;;38.67;15.30;;;;;;;25.15;100.00;101685.97;5004859;28;20140;-51
2022/10/29 09:54:41;;;;;;;33.03;15.80;;;;;;;25.23;100.00;101673.63;5000818;28;20033;-47
2022/10/29 09:57:25;;;;;;;36.40;16.60;;;;;;;25.33;100.00;101690.88;5005853;28;20035;-54
2022/10/29 10:00:00;;;;;;;31.10;16.37;;;;;;;25.42;100.00;101688.41;5000197;28;20072;-50
2022/10/29 10:02:32;;;;;;;38.20;17.43;;;;;;;25.81;100.00;101689.72;5011296;28;20038;-51
2022/10/29 10:05:06;;;;;;;40.10;16.30;;;;;;;25.58;100.00;101683.75;5003960;28;20027;-49
2022/10/29 10:07:32;;;;;;;37.60;16.33;;;;;;;26.05;100.00;101694.56;5009645;28;20109;-48
2022/10/29 10:10:00;;;;;;;28.77;15.32;;;;;;;26.00;100.00;101684.47;5003864;28;20050;-50
2022/10/29 10:12:42;;;;;;;34.20;15.90;;;;;;;26.94;100.00;101678.50;5001729;28;20090;-49
2022/10/29 10:15:31;;;;;;;36.90;15.97;;;;;;;27.05;100.00;101693.75;5005733;28;20083;-51
2022/10/29 10:18:03;;;;;;;39.80;16.10;;;;;;;27.17;100.00;101691.47;5009756;28;20034;-54
2022/10/29 10:21:00;;;;;;;33.37;15.97;;;;;;;27.99;100.00;101699.19;5002797;28;20070;-54
2022/10/29 10:23:39;;;;;;;28.03;13.90;;;;;;;28.25;100.00;101696.94;5001962;28;20047;-54
2022/10/29 10:26:25;;;;;;;38.03;16.40;;;;;;;28.93;100.00;101696.81;5006325;28;20067;-53
2022/10/29 10:29:12;;;;;;;31.83;13.80;;;;;;;29.82;100.00;101699.66;5005131;28;20094;-54
2022/10/29 10:31:39;;;;;;;34.60;13.63;;;;;;;29.68;100.00;101699.66;5005815;28;20030;-52
2022/10/29 10:34:14;;;;;;;22.60;12.07;;;;;;;31.66;96.02;101698.72;4997976;28;20031;-54
2022/10/29 10:36:42;;;;;;;23.05;10.32;;;;;;;32.89;87.62;101705.31;5010751;28;20070;-52
2022/10/29 10:39:29;;;;;;;22.63;10.82;;;;;;;32.87;84.63;101692.88;5002933;28;20019;-54
2022/10/29 10:41:57;;;;;;;27.40;11.15;;;;;;;32.43;85.15;101693.72;5000111;28;20034;-49
2022/10/29 10:44:23;;;;;;;27.08;10.93;;;;;;;31.35;88.91;101688.47;4997532;28;20031;-51
2022/10/29 10:46:51;;;;;;;26.08;11.60;;;;;;;30.40;96.44;101678.03;4998476;28;20050;-51
2022/10/29 10:49:32;;;;;;;26.70;10.50;;;;;;;30.26;98.67;101672.56;5000100;28;20034;-53
2022/10/29 10:52:00;;;;;;;29.92;11.05;;;;;;;29.96;99.86;101662.97;4995448;28;20058;-53
2022/10/29 10:54:35;;;;;;;27.73;10.93;;;;;;;30.31;98.97;101668.88;4997182;28;20103;-53
2022/10/29 10:57:16;;;;;;;23.95;11.50;;;;;;;31.31;92.26;101680.84;5002199;28;20042;-53
2022/10/29 10:59:55;;;;;;;25.08;10.80;;;;;;;32.21;87.52;101678.06;4995400;28;20064;-53
2022/10/29 11:02:28;;;;;;;26.77;10.02;;;;;;;31.93;87.66;101669.22;5012146;28;20034;-53
2022/10/29 11:04:59;;;;;;;20.63;10.00;;;;;;;31.84;88.13;101672.78;5005335;28;20055;-54
2022/10/29 11:07:31;;;;;;;24.33;11.23;;;;;;;33.56;81.17;101670.88;4998499;28;20045;-53
2022/10/29 11:09:58;;;;;;;19.63;10.00;;;;;;;33.95;77.28;101681.94;4996535;28;20051;-51
2022/10/29 11:12:32;;;;;;;20.50;10.90;;;;;;;33.72;76.93;101687.78;5003174;28;20042;-49
2022/10/29 11:15:35;;;;;;;24.20;10.30;;;;;;;34.38;74.33;101686.38;5008223;28;20034;-54
2022/10/29 11:18:17;;;;;;;20.60;9.48;;;;;;;34.26;73.47;101683.53;4996961;28;20042;-52